createdAt,value
2019-05-01T00:00:32.368Z,81.7
2019-05-01T00:01:13.413Z,81.79
2019-05-01T00:01:53.795Z,81.18
2019-05-01T00:02:34.226Z,81.56
2019-05-01T00:03:14.593Z,81.32
2019-05-01T00:03:55.028Z,81.32
2019-05-01T00:04:35.450Z,81.66
2019-05-01T00:05:15.820Z,81.27
2019-05-01T00:05:56.185Z,81.18
2019-05-01T00:06:36.579Z,81.56
2019-05-01T00:07:16.987Z,81.56
2019-05-01T00:07:57.361Z,81.95
2019-05-01T00:08:37.729Z,82.23
2019-05-01T00:09:18.130Z,82.52
2019-05-01T00:09:58.577Z,82.71
2019-05-01T00:10:38.930Z,83.28
2019-05-01T00:12:38.829Z,83
2019-05-01T00:13:19.174Z,83.57
2019-05-01T00:13:59.554Z,83.86
2019-05-01T00:14:40.008Z,83.47
2019-05-01T00:15:20.360Z,83.38
2019-05-01T00:16:41.151Z,83.38
2019-05-01T00:17:21.533Z,83.57
2019-05-01T00:18:01.958Z,83.76
2019-05-01T00:19:22.713Z,83.28
2019-05-01T00:20:03.142Z,82.86
2019-05-01T00:20:43.491Z,83.62
2019-05-01T00:21:23.884Z,83.34
2019-05-01T00:22:04.238Z,83.72
2019-05-01T00:22:44.655Z,83.81
2019-05-01T00:24:05.632Z,83.53
2019-05-01T00:24:46.012Z,83.62
2019-05-01T00:25:26.425Z,83.53
2019-05-01T00:26:06.780Z,83.47
2019-05-01T00:26:47.223Z,84.14
2019-05-01T00:27:27.580Z,83.28
2019-05-01T00:28:07.963Z,83.18
2019-05-01T00:28:48.391Z,82.52
2019-05-01T00:29:28.793Z,82.52
2019-05-01T00:30:09.253Z,82.52
2019-05-01T00:30:49.634Z,82.52
2019-05-01T00:31:30.095Z,82.61
2019-05-01T00:32:10.584Z,82.52
2019-05-01T00:32:50.990Z,82.81
2019-05-01T00:34:11.944Z,82.76
2019-05-01T00:34:52.227Z,83.62
2019-05-01T00:37:12.166Z,83.34
2019-05-01T00:37:53.152Z,83.53
2019-05-01T00:38:33.654Z,83.34
2019-05-01T00:39:14.031Z,82.76
2019-05-01T00:39:54.371Z,83.14
2019-05-01T00:40:34.757Z,83.34
2019-05-01T00:41:15.164Z,83.53
2019-05-01T00:41:55.580Z,83.91
2019-05-01T00:42:35.920Z,83.91
2019-05-01T00:43:16.306Z,84.96
2019-05-01T00:43:56.712Z,84.96
2019-05-01T00:44:37.144Z,85.34
2019-05-01T00:45:17.514Z,85.34
2019-05-01T00:45:57.846Z,84.48
2019-05-01T00:46:38.259Z,85.25
2019-05-01T00:47:18.667Z,84.39
2019-05-01T00:47:59.045Z,84.77
2019-05-01T00:48:39.400Z,84.2
2019-05-01T00:49:19.872Z,84.96
2019-05-01T00:50:00.454Z,84.48
2019-05-01T00:50:40.785Z,85.15
2019-05-01T00:51:21.176Z,85.44
2019-05-01T00:52:01.594Z,85.63
2019-05-01T00:52:41.991Z,85.82
2019-05-01T00:54:02.773Z,84.96
2019-05-01T00:54:43.250Z,84.96
2019-05-01T00:55:23.552Z,85.15
2019-05-01T00:56:44.374Z,84.2
2019-05-01T00:57:24.718Z,83.81
2019-05-01T00:58:05.088Z,83.57
2019-05-01T00:58:45.557Z,83.05
2019-05-01T00:59:25.940Z,83.09
2019-05-01T01:00:06.542Z,82.48
2019-05-01T01:00:46.904Z,82.95
2019-05-01T01:01:28.179Z,82.61
2019-05-01T01:02:08.367Z,82.61
2019-05-01T01:02:48.877Z,82.71
2019-05-01T01:03:29.320Z,82.61
2019-05-01T01:04:09.706Z,82.52
2019-05-01T01:04:50.159Z,82.52
2019-05-01T01:05:30.541Z,82.61
2019-05-01T01:06:10.984Z,82.32
2019-05-01T01:06:51.385Z,82.48
2019-05-01T01:07:31.811Z,82.38
2019-05-01T01:08:12.183Z,82.67
2019-05-01T01:08:52.552Z,82.38
2019-05-01T01:09:32.929Z,83.05
2019-05-01T01:10:13.369Z,83.34
2019-05-01T01:10:53.766Z,84.29
2019-05-01T01:12:14.619Z,84.67
2019-05-01T01:12:54.968Z,84.48
2019-05-01T01:13:35.301Z,85.21
2019-05-01T01:17:32.958Z,85.58
2019-05-01T01:18:13.632Z,85.58
2019-05-01T01:18:54.049Z,85.77
2019-05-01T01:19:34.476Z,85.77
2019-05-01T01:20:14.818Z,86.16
2019-05-01T01:20:55.206Z,86.63
2019-05-01T01:22:16.026Z,86.35
2019-05-01T01:22:56.459Z,86.2
2019-05-01T01:23:36.828Z,85.49
2019-05-01T01:24:17.176Z,85.34
2019-05-01T01:24:57.561Z,85.34
2019-05-01T01:25:37.969Z,85.44
2019-05-01T01:26:18.379Z,84.48
2019-05-01T01:26:58.810Z,84.67
2019-05-01T01:27:39.185Z,85.25
2019-05-01T01:28:19.631Z,85.53
2019-05-01T01:29:00.135Z,85.25
2019-05-01T01:29:40.487Z,85.3
2019-05-01T01:30:20.903Z,85.01
2019-05-01T01:31:01.292Z,85.01
2019-05-01T01:31:41.611Z,85.58
2019-05-01T01:32:22.107Z,85.21
2019-05-01T01:33:02.490Z,85.77
2019-05-01T01:33:42.783Z,85.77
2019-05-01T01:34:23.184Z,85.49
2019-05-01T01:35:03.635Z,86.06
2019-05-01T01:35:44.017Z,86.16
2019-05-01T01:37:04.849Z,85.68
2019-05-01T01:37:45.282Z,85.68
2019-05-01T01:38:25.692Z,85.68
2019-05-01T01:39:46.444Z,86.06
2019-05-01T01:40:26.828Z,85.87
2019-05-01T01:41:07.204Z,86.25
2019-05-01T01:41:47.610Z,86.06
2019-05-01T01:42:28.011Z,86.63
2019-05-01T01:43:08.362Z,86.63
2019-05-01T01:43:48.756Z,86.92
2019-05-01T01:44:29.182Z,86.35
2019-05-01T01:45:09.587Z,86.25
2019-05-01T01:45:49.933Z,86.06
2019-05-01T01:46:30.318Z,85.97
2019-05-01T01:47:10.751Z,86.06
2019-05-01T01:47:51.124Z,85.87
2019-05-01T01:48:31.536Z,86.73
2019-05-01T01:49:52.390Z,86.92
2019-05-01T01:50:32.791Z,87.02
2019-05-01T01:51:13.226Z,86.82
2019-05-01T01:52:34.022Z,86.82
2019-05-01T01:53:14.412Z,87.97
2019-05-01T01:53:54.828Z,87.87
2019-05-01T01:54:35.265Z,87.59
2019-05-01T01:55:15.636Z,87.78
2019-05-01T01:55:56.078Z,87.78
2019-05-01T01:56:36.501Z,87.87
2019-05-01T01:57:16.865Z,87.97
2019-05-01T01:57:57.267Z,87.3
2019-05-01T01:58:37.667Z,87.3
2019-05-01T02:01:36.324Z,87.68
2019-05-01T02:02:16.884Z,87.78
2019-05-01T02:02:57.263Z,87.87
2019-05-01T02:03:37.669Z,87.97
2019-05-01T02:04:18.031Z,87.49
2019-05-01T02:04:58.432Z,87.02
2019-05-01T02:05:38.805Z,86.54
2019-05-01T02:06:19.187Z,86.63
2019-05-01T02:06:59.581Z,86.44
2019-05-01T02:07:40.008Z,86.25
2019-05-01T02:08:20.411Z,86.73
2019-05-01T02:09:00.778Z,86.54
2019-05-01T02:10:21.684Z,87.11
2019-05-01T02:11:01.961Z,87.3
2019-05-01T02:11:42.404Z,87.97
2019-05-01T02:13:03.116Z,89.12
2019-05-01T02:13:43.559Z,88.73
2019-05-01T02:14:23.919Z,88.54
2019-05-01T02:15:04.365Z,88.5
2019-05-01T02:15:44.797Z,88.45
2019-05-01T02:16:25.169Z,88.73
2019-05-01T02:17:45.927Z,88.26
2019-05-01T02:18:26.311Z,88.26
2019-05-01T02:19:06.703Z,88.45
2019-05-01T02:19:47.108Z,88.73
2019-05-01T02:20:27.513Z,88.54
2019-05-01T02:21:07.911Z,88.73
2019-05-01T02:21:48.304Z,88.16
2019-05-01T02:22:28.637Z,88.07
2019-05-01T02:23:09.002Z,87.97
2019-05-01T02:23:49.412Z,87.83
2019-05-01T02:24:29.846Z,88.31
2019-05-01T02:25:10.228Z,88.26
2019-05-01T02:27:23.225Z,88.78
2019-05-01T02:28:03.613Z,89.26
2019-05-01T02:28:44.031Z,89.36
2019-05-01T02:29:24.455Z,89.36
2019-05-01T02:30:04.860Z,89.26
2019-05-01T02:30:45.240Z,89.36
2019-05-01T02:31:27.806Z,88.88
2019-05-01T02:32:06.046Z,89.64
2019-05-01T02:32:46.438Z,88.78
2019-05-01T02:33:26.894Z,88.88
2019-05-01T02:34:07.283Z,88.59
2019-05-01T02:35:30.302Z,88.59
2019-05-01T02:36:08.435Z,88.69
2019-05-01T02:36:48.821Z,89.36
2019-05-01T02:37:29.212Z,89.26
2019-05-01T02:38:09.613Z,89.36
2019-05-01T02:38:50.007Z,89.45
2019-05-01T02:39:30.425Z,89.45
2019-05-01T02:40:10.852Z,90.03
2019-05-01T02:40:51.284Z,90.03
2019-05-01T02:41:31.652Z,89.83
2019-05-01T02:45:19.699Z,90.5
2019-05-01T02:46:17.220Z,90.12
2019-05-01T02:48:41.344Z,90.79
2019-05-01T02:49:21.614Z,90.22
2019-05-01T02:50:02.070Z,90.22
2019-05-01T02:50:42.448Z,90.69
2019-05-01T02:51:22.847Z,90.5
2019-05-01T02:52:03.292Z,90.59
2019-05-01T02:53:24.054Z,90.98
2019-05-01T02:54:04.443Z,91.07
2019-05-01T02:54:44.843Z,90.5
2019-05-01T02:55:25.259Z,91.22
2019-05-01T02:56:05.683Z,90.59
2019-05-01T02:56:46.088Z,91.5
2019-05-01T02:57:26.502Z,91.6
2019-05-01T02:58:06.917Z,91.5
2019-05-01T02:58:47.308Z,91.79
2019-05-01T02:59:27.723Z,92.46
2019-05-01T03:00:08.111Z,92.84
2019-05-01T03:00:48.515Z,93.03
2019-05-01T03:01:45.337Z,93.32
2019-05-01T03:02:09.331Z,93.32
2019-05-01T03:02:49.739Z,93.41
2019-05-01T03:03:30.211Z,94.17
2019-05-01T03:04:10.550Z,93.7
2019-05-01T03:04:50.941Z,93.03
2019-05-01T03:05:31.317Z,93.32
2019-05-01T03:06:11.734Z,92.84
2019-05-01T03:06:52.091Z,92.17
2019-05-01T03:07:32.529Z,92.98
2019-05-01T03:08:12.884Z,92.17
2019-05-01T03:08:53.303Z,92.84
2019-05-01T03:09:33.726Z,92.41
2019-05-01T03:10:54.507Z,91.98
2019-05-01T03:11:34.930Z,92.17
2019-05-01T03:12:15.348Z,91.69
2019-05-01T03:12:55.738Z,91.6
2019-05-01T03:13:36.155Z,91.41
2019-05-01T03:14:16.551Z,91.5
2019-05-01T03:14:56.953Z,92.27
2019-05-01T03:15:37.368Z,92.55
2019-05-01T03:16:17.791Z,92.84
2019-05-01T03:16:58.232Z,93.32
2019-05-01T03:17:38.566Z,93.03
2019-05-01T03:18:18.942Z,93.6
2019-05-01T03:18:59.333Z,93.6
2019-05-01T03:22:31.064Z,93.32
2019-05-01T03:23:11.483Z,93.41
2019-05-01T03:23:51.902Z,93.27
2019-05-01T03:24:32.287Z,94.03
2019-05-01T03:25:12.665Z,93.65
2019-05-01T03:26:33.492Z,94.6
2019-05-01T03:27:13.879Z,94.51
2019-05-01T03:27:54.293Z,95.08
2019-05-01T03:28:34.699Z,94.89
2019-05-01T03:29:17.020Z,94.79
2019-05-01T03:29:57.405Z,94.51
2019-05-01T03:30:37.807Z,94.6
2019-05-01T03:31:18.174Z,94.6
2019-05-01T03:32:15.158Z,94.98
2019-05-01T03:32:38.974Z,94.7
2019-05-01T03:33:59.773Z,95.51
2019-05-01T03:34:40.225Z,94.79
2019-05-01T03:35:20.609Z,96.7
2019-05-01T03:36:00.976Z,96.89
2019-05-01T03:36:41.352Z,97.46
2019-05-01T03:37:21.784Z,97.65
2019-05-01T03:38:02.189Z,98.13
2019-05-01T03:38:42.516Z,98.22
2019-05-01T03:39:22.948Z,97.84
2019-05-01T03:40:03.366Z,97.75
2019-05-01T03:40:43.753Z,98.41
2019-05-01T03:41:24.130Z,97.84
2019-05-01T03:42:04.535Z,96.51
2019-05-01T03:42:44.938Z,96.22
2019-05-01T03:44:05.734Z,98.13
2019-05-01T03:44:46.115Z,98.22
2019-05-01T03:45:26.449Z,97.65
2019-05-01T03:46:06.858Z,97.65
2019-05-01T03:46:47.210Z,97.17
2019-05-01T03:47:27.619Z,98.03
2019-05-01T03:48:07.982Z,98.41
2019-05-01T03:48:48.366Z,98.51
2019-05-01T03:49:28.768Z,99.08
2019-05-01T03:50:09.143Z,98.13
2019-05-01T03:50:49.523Z,98.51
2019-05-01T03:51:29.950Z,98.03
2019-05-01T03:52:10.344Z,98.41
2019-05-01T03:52:50.702Z,97.36
2019-05-01T03:53:31.101Z,97.65
2019-05-01T03:54:11.497Z,96.56
2019-05-01T03:54:51.884Z,96.8
2019-05-01T03:55:32.262Z,97.22
2019-05-01T03:56:12.635Z,96.56
2019-05-01T03:56:53.001Z,96.36
2019-05-01T03:57:33.383Z,95.89
2019-05-01T04:00:26.996Z,95.22
2019-05-01T04:01:07.208Z,95.61
2019-05-01T04:01:47.601Z,95.12
2019-05-01T04:02:33.368Z,94.84
2019-05-01T04:03:08.399Z,94.56
2019-05-01T04:04:29.274Z,94.22
2019-05-01T04:05:09.651Z,94.41
2019-05-01T04:05:50.044Z,93.93
2019-05-01T04:06:30.574Z,93.27
2019-05-01T04:07:10.930Z,92.6
2019-05-01T04:07:51.345Z,92.88
2019-05-01T04:08:31.764Z,91.83
2019-05-01T04:09:12.191Z,91.46
2019-05-01T04:09:52.629Z,92.41
2019-05-01T04:10:33.047Z,91.83
2019-05-01T04:11:13.474Z,91.93
2019-05-01T04:11:53.898Z,91.74
2019-05-01T04:12:34.286Z,91.46
2019-05-01T04:13:14.737Z,90.79
2019-05-01T04:13:55.130Z,91.07
2019-05-01T04:14:38.808Z,91.12
2019-05-01T04:15:15.944Z,90.93
2019-05-01T04:15:56.334Z,90.55
2019-05-01T04:17:53.970Z,89.21
2019-05-01T04:18:34.518Z,89.5
2019-05-01T04:19:14.911Z,89.59
2019-05-01T04:19:55.322Z,88.64
2019-05-01T04:20:35.740Z,88.54
2019-05-01T04:24:37.056Z,87.49
2019-05-01T04:25:17.330Z,87.3
2019-05-01T04:25:57.717Z,88.07
2019-05-01T04:26:38.098Z,87.68
2019-05-01T04:27:18.477Z,87.3
2019-05-01T04:27:59.109Z,87.49
2019-05-01T05:07:04.538Z,99.04
2019-05-01T05:07:58.834Z,98.94
2019-05-01T05:08:56.304Z,99.51
2019-05-01T05:09:46.044Z,99.41
2019-05-01T05:12:04.051Z,99.99
2019-05-01T05:12:44.459Z,99.99
2019-05-01T05:13:24.900Z,99.99
2019-05-01T05:14:05.251Z,99.99
2019-05-01T05:14:45.651Z,99.99
2019-05-01T05:15:26.022Z,99.99
2019-05-01T05:16:06.459Z,99.99
2019-05-01T05:16:46.804Z,99.99
2019-05-01T05:17:27.195Z,99.99
2019-05-01T05:18:07.598Z,99.99
2019-05-01T05:18:47.899Z,99.6
2019-05-01T05:19:28.309Z,99.89
2019-05-01T05:20:08.754Z,99.32
2019-05-01T05:20:49.124Z,98.8
2019-05-01T05:21:29.539Z,98.8
2019-05-01T05:22:09.887Z,99.18
2019-05-01T05:22:50.281Z,98.8
2019-05-01T05:23:30.679Z,98.9
2019-05-01T05:24:11.067Z,98.22
2019-05-01T05:24:51.428Z,98.22
2019-05-01T05:25:31.836Z,98.22
2019-05-01T05:26:12.211Z,98.22
2019-05-01T05:26:52.600Z,97.66
2019-05-01T05:27:32.997Z,97.75
2019-05-01T05:28:13.406Z,96.98
2019-05-01T05:29:34.245Z,96.03
2019-05-01T05:30:14.597Z,94.98
2019-05-01T05:30:55.010Z,95.08
2019-05-01T05:32:15.747Z,95.51
2019-05-01T05:35:32.249Z,92.36
2019-05-01T05:36:13.009Z,91.74
2019-05-01T05:36:53.508Z,91.74
2019-05-01T05:37:33.833Z,91.26
2019-05-01T05:38:14.315Z,91.45
2019-05-01T05:38:54.766Z,91.36
2019-05-01T05:39:35.156Z,91.83
2019-05-01T05:40:15.562Z,91.74
2019-05-01T05:40:55.975Z,92.31
2019-05-01T05:41:36.380Z,92.21
2019-05-01T05:42:16.811Z,92.31
2019-05-01T05:42:57.224Z,91.98
2019-05-01T05:43:37.611Z,91.88
2019-05-01T05:44:17.985Z,92.5
2019-05-01T05:44:58.397Z,92.5
2019-05-01T05:45:38.822Z,91.55
2019-05-01T05:46:19.194Z,92.41
2019-05-01T05:46:59.567Z,91.74
2019-05-01T05:47:39.975Z,92.6
2019-05-01T05:48:20.369Z,92.31
2019-05-01T05:49:00.800Z,91.74
2019-05-01T05:49:41.173Z,91.83
2019-05-01T05:50:21.572Z,91.36
2019-05-01T05:51:01.986Z,91.83
2019-05-01T05:51:42.458Z,91.26
2019-05-01T05:52:22.817Z,90.69
2019-05-01T05:53:03.212Z,90.69
2019-05-01T05:53:43.551Z,90.78
2019-05-01T05:54:23.969Z,90.97
2019-05-01T05:55:04.360Z,90.69
2019-05-01T05:55:44.735Z,90.59
2019-05-01T05:56:25.339Z,91.07
2019-05-01T05:57:05.490Z,91.26
2019-05-01T05:57:45.932Z,90.97
2019-05-01T05:58:26.286Z,90.97
2019-05-01T05:59:06.665Z,90.59
2019-05-01T05:59:47.114Z,90.06
2019-05-01T06:00:27.480Z,89.68
2019-05-01T06:01:07.877Z,89.87
2019-05-01T06:05:16.414Z,91.16
2019-05-01T06:05:56.041Z,90.5
2019-05-01T06:06:36.528Z,90.88
2019-05-01T06:07:16.931Z,91.16
2019-05-01T06:07:57.305Z,91.16
2019-05-01T06:08:37.744Z,91.07
2019-05-01T06:09:18.045Z,91.07
2019-05-01T06:09:58.472Z,90.78
2019-05-01T06:10:38.884Z,90.69
2019-05-01T06:11:19.275Z,90.88
2019-05-01T06:11:59.672Z,90.31
2019-05-01T06:12:41.612Z,90.11
2019-05-01T06:13:21.824Z,89.87
2019-05-01T06:14:41.283Z,90.06
2019-05-01T06:15:21.681Z,89.2
2019-05-01T06:16:02.084Z,89.68
2019-05-01T06:16:42.518Z,88.54
2019-05-01T06:17:23.653Z,88.82
2019-05-01T06:18:04.013Z,88.73
2019-05-01T06:18:43.689Z,88.15
2019-05-01T06:19:24.067Z,87.96
2019-05-01T06:20:04.482Z,88.15
2019-05-01T06:20:44.839Z,87.96
2019-05-01T06:21:25.269Z,87.87
2019-05-01T06:22:10.015Z,88.25
2019-05-01T06:22:46.200Z,87.77
2019-05-01T06:23:26.416Z,87.87
2019-05-01T06:24:06.982Z,87.77
2019-05-01T06:24:47.233Z,87.48
2019-05-01T06:25:27.636Z,87.96
2019-05-01T06:26:07.999Z,87.77
2019-05-01T06:26:48.407Z,88.54
2019-05-01T06:27:28.741Z,89.83
2019-05-01T06:28:09.130Z,90.02
2019-05-01T06:28:49.666Z,90.59
2019-05-01T06:30:10.969Z,91.26
2019-05-01T06:30:50.716Z,91.74
2019-05-01T06:31:31.080Z,92.5
2019-05-01T06:32:11.481Z,92.41
2019-05-01T06:32:51.898Z,92.93
2019-05-01T06:33:43.776Z,92.74
2019-05-01T06:34:12.681Z,93.51
2019-05-01T06:34:53.078Z,93.55
2019-05-01T06:35:33.862Z,94.17
2019-05-01T06:36:14.339Z,94.56
2019-05-01T06:37:34.709Z,94.36
2019-05-01T06:38:15.065Z,94.36
2019-05-01T06:38:55.478Z,94.74
2019-05-01T06:39:35.910Z,94.79
2019-05-01T06:40:18.692Z,94.56
2019-05-01T06:40:58.044Z,94.51
2019-05-01T06:41:42.218Z,94.03
2019-05-01T06:42:17.477Z,93.65
2019-05-01T06:42:57.819Z,93.26
2019-05-01T06:43:38.239Z,93.26
2019-05-01T06:44:18.736Z,93.36
2019-05-01T06:44:59.180Z,93.65
2019-05-01T06:45:39.577Z,93.55
2019-05-01T06:46:21.918Z,92.97
2019-05-01T06:47:03.147Z,92.31
2019-05-01T06:48:21.060Z,93.65
2019-05-01T06:49:01.471Z,94.31
2019-05-01T06:49:41.945Z,93.84
2019-05-01T06:51:02.757Z,94.31
2019-05-01T06:51:43.135Z,93.36
2019-05-01T06:52:24.804Z,92.88
2019-05-01T06:53:04.516Z,92.41
2019-05-01T06:53:44.335Z,92.5
2019-05-01T06:54:24.702Z,92.5
2019-05-01T06:55:05.147Z,92.6
2019-05-01T06:55:45.518Z,92.79
2019-05-01T06:56:25.946Z,92.88
2019-05-01T06:57:06.283Z,92.6
2019-05-01T06:57:46.695Z,92.21
2019-05-01T06:58:27.088Z,92.41
2019-05-01T06:59:07.487Z,92.21
2019-05-01T06:59:47.857Z,92.31
2019-05-01T07:01:08.636Z,93.07
2019-05-01T07:01:53.026Z,93.17
2019-05-01T07:02:29.747Z,92.79
2019-05-01T07:03:10.375Z,92.97
2019-05-01T07:04:03.153Z,92.79
2019-05-01T07:04:32.150Z,92.88
2019-05-01T07:05:14.531Z,92.31
2019-05-01T07:05:54.228Z,91.83
2019-05-01T07:06:32.911Z,91.4
2019-05-01T07:07:24.629Z,90.45
2019-05-01T07:07:53.076Z,89.87
2019-05-01T07:08:34.157Z,89.78
2019-05-01T07:09:26.786Z,89.68
2019-05-01T07:09:53.907Z,89.49
2019-05-01T07:10:43.452Z,88.73
2019-05-01T07:11:15.399Z,88.92
2019-05-01T07:11:54.940Z,88.54
2019-05-01T07:12:35.303Z,88.63
2019-05-01T07:13:15.687Z,88.44
2019-05-01T07:13:56.060Z,88.01
2019-05-01T07:14:36.467Z,87.05
2019-05-01T07:15:16.857Z,86.53
2019-05-01T07:15:58.348Z,86.67
2019-05-01T07:16:39.065Z,86.86
2019-05-01T07:17:18.262Z,86.67
2019-05-01T07:18:39.003Z,86.76
2019-05-01T07:19:19.412Z,87.29
2019-05-01T07:19:59.798Z,87.39
2019-05-01T07:20:40.211Z,87.39
2019-05-01T07:21:22.727Z,88.06
2019-05-01T07:22:01.748Z,88.44
2019-05-01T07:22:42.118Z,88.82
2019-05-01T07:23:21.777Z,89.11
2019-05-01T07:24:02.179Z,88.63
2019-05-01T07:24:42.603Z,88.92
2019-05-01T07:25:23.034Z,88.29
2019-05-01T07:26:03.347Z,88.54
2019-05-01T07:26:47.615Z,87.91
2019-05-01T07:27:25.175Z,86.91
2019-05-01T07:28:04.601Z,86.82
2019-05-01T07:28:44.993Z,87.05
2019-05-01T07:32:20.262Z,85.52
2019-05-01T07:33:00.584Z,85.05
2019-05-01T07:33:40.990Z,84.19
2019-05-01T07:34:21.599Z,85.05
2019-05-01T07:35:02.293Z,84.28
2019-05-01T07:35:42.147Z,84.09
2019-05-01T07:36:22.598Z,83.99
2019-05-01T07:37:02.975Z,84.23
2019-05-01T07:37:43.392Z,83.46
2019-05-01T07:39:28.296Z,83.65
2019-05-01T07:40:08.722Z,82.89
2019-05-01T07:40:49.154Z,82.98
2019-05-01T07:41:29.470Z,83.08
2019-05-01T07:42:12.329Z,83.17
2019-05-01T07:42:50.265Z,82.98
2019-05-01T07:43:30.636Z,83.65
2019-05-01T07:44:11.058Z,83.37
2019-05-01T07:44:51.476Z,83.84
2019-05-01T07:45:31.804Z,83.84
2019-05-01T07:46:13.693Z,83.94
2019-05-01T07:46:54.002Z,83.94
2019-05-01T07:47:33.056Z,83.75
2019-05-01T07:48:13.447Z,84.52
2019-05-01T07:49:34.270Z,84.56
2019-05-01T07:50:14.730Z,84.95
2019-05-01T07:50:55.169Z,85.52
2019-05-01T07:51:37.661Z,84.95
2019-05-01T07:52:17.055Z,85.24
2019-05-01T07:52:56.439Z,85.14
2019-05-01T07:53:36.893Z,85.05
2019-05-01T07:54:17.315Z,85.81
2019-05-01T07:54:57.698Z,86.29
2019-05-01T07:55:38.706Z,86.1
2019-05-01T07:56:22.763Z,85.33
2019-05-01T07:57:03.145Z,84.95
2019-05-01T07:57:41.267Z,84.95
2019-05-01T07:58:22.293Z,85.14
2019-05-01T07:59:44.978Z,84.28
2019-05-01T08:00:25.418Z,84.09
2019-05-01T08:01:05.778Z,83.99
2019-05-01T08:01:49.778Z,83.61
2019-05-01T08:02:30.860Z,83.65
2019-05-01T08:03:07.362Z,83.65
2019-05-01T08:03:49.300Z,83.56
2019-05-01T08:04:37.769Z,83.94
2019-05-01T08:05:11.744Z,83.65
2019-05-01T08:05:51.501Z,84.19
2019-05-01T08:06:31.885Z,84.28
2019-05-01T08:07:12.282Z,84.56
2019-05-01T08:07:52.701Z,85.24
2019-05-01T08:08:33.124Z,85.24
2019-05-01T08:09:53.867Z,84.95
2019-05-01T08:10:34.283Z,85.24
2019-05-01T08:11:14.897Z,85.42
2019-05-01T08:11:55.298Z,85.24
2019-05-01T08:12:35.721Z,85.14
2019-05-01T08:13:16.114Z,85.24
2019-05-01T08:14:07.022Z,85.52
2019-05-01T08:14:36.902Z,85.24
2019-05-01T08:15:17.256Z,85.42
2019-05-01T08:15:57.653Z,85.24
2019-05-01T08:16:42.384Z,84.95
2019-05-01T08:17:19.857Z,85.24
2019-05-01T08:17:58.815Z,85.05
2019-05-01T08:18:39.225Z,84.85
2019-05-01T08:19:19.662Z,84.28
2019-05-01T08:20:00.054Z,83.75
2019-05-01T08:20:40.484Z,83.37
2019-05-01T08:23:42.557Z,84.09
2019-05-01T08:24:22.808Z,84.19
2019-05-01T08:25:00.132Z,84.28
2019-05-01T08:25:40.525Z,85.05
2019-05-01T08:26:20.933Z,84.38
2019-05-01T08:27:01.335Z,85.05
2019-05-01T08:27:41.740Z,85.05
2019-05-01T08:28:22.192Z,84.76
2019-05-01T08:29:02.907Z,84.28
2019-05-01T08:29:43.801Z,84.76
2019-05-01T08:30:23.351Z,84.42
2019-05-01T08:31:03.724Z,84.19
2019-05-01T08:31:44.146Z,84.38
2019-05-01T08:32:24.563Z,84.19
2019-05-01T08:33:04.951Z,84.19
2019-05-01T08:33:49.729Z,84.09
2019-05-01T08:34:26.586Z,84.28
2019-05-01T08:35:46.550Z,85.05
2019-05-01T08:36:26.978Z,84.38
2019-05-01T08:37:07.390Z,84.66
2019-05-01T08:38:29.712Z,83.99
2019-05-01T08:39:09.050Z,83.75
2019-05-01T08:39:48.992Z,83.17
2019-05-01T08:40:29.370Z,82.6
2019-05-01T08:41:09.761Z,82.22
2019-05-01T08:41:50.208Z,81.55
2019-05-01T08:43:13.614Z,81.65
2019-05-01T08:43:53.876Z,81.65
2019-05-01T08:44:31.820Z,81.93
2019-05-01T08:45:12.136Z,82.03
2019-05-01T08:45:52.575Z,82.7
2019-05-01T08:46:32.911Z,82.6
2019-05-01T08:47:13.346Z,83.37
2019-05-01T08:47:56.684Z,83.08
2019-05-01T08:48:35.703Z,82.98
2019-05-01T08:49:14.532Z,81.84
2019-05-01T08:49:54.926Z,81.65
2019-05-01T08:50:35.283Z,81.55
2019-05-01T08:51:15.704Z,81.65
2019-05-01T08:51:56.064Z,81.26
2019-05-01T08:52:36.463Z,80.79
2019-05-01T08:53:57.721Z,81.16
2019-05-01T08:54:38.610Z,80.98
2019-05-01T08:55:18.766Z,81.26
2019-05-01T08:55:59.211Z,80.98
2019-05-01T08:56:39.646Z,81.74
2019-05-01T08:57:19.955Z,81.65
2019-05-01T08:58:00.334Z,81.55
2019-05-01T08:58:44.711Z,81.36
2019-05-01T08:59:23.833Z,81.07
2019-05-01T09:00:01.829Z,80.79
2019-05-01T09:00:42.023Z,81.26
2019-05-01T09:01:22.425Z,80.3
2019-05-01T09:02:09.221Z,79.83
2019-05-01T09:02:43.444Z,79.54
2019-05-01T09:03:23.594Z,79.44
2019-05-01T09:04:12.539Z,79.44
2019-05-01T09:04:44.444Z,79.35
2019-05-01T09:05:28.668Z,78.97
2019-05-01T09:06:05.251Z,79.25
2019-05-01T09:06:45.633Z,79.54
2019-05-01T09:07:26.045Z,79.93
2019-05-01T09:08:46.860Z,80.21
2019-05-01T09:09:27.243Z,80.5
2019-05-01T09:10:09.181Z,80.79
2019-05-01T09:11:31.679Z,81.07
2019-05-01T09:12:11.723Z,81.26
2019-05-01T09:12:51.899Z,81.07
2019-05-01T09:13:29.612Z,81.16
2019-05-01T09:14:10.012Z,81.55
2019-05-01T09:14:51.240Z,81.74
2019-05-01T09:15:30.811Z,81.55
2019-05-01T09:16:11.202Z,81.55
2019-05-01T09:16:52.508Z,80.98
2019-05-01T09:17:32.077Z,81.36
2019-05-01T09:18:12.471Z,81.21
2019-05-01T09:18:52.830Z,80.5
2019-05-01T09:19:33.250Z,80.16
2019-05-01T09:20:16.379Z,79.58
2019-05-01T09:20:54.052Z,79.29
2019-05-01T09:21:37.676Z,79.39
2019-05-01T09:22:14.831Z,79.2
2019-05-01T09:22:55.333Z,78.63
2019-05-01T09:23:35.723Z,78.53
2019-05-01T09:24:16.116Z,78.72
2019-05-01T09:24:59.864Z,78.63
2019-05-01T09:25:36.969Z,77.95
2019-05-01T09:26:17.302Z,77.67
2019-05-01T09:26:57.925Z,77.28
2019-05-01T09:27:38.237Z,76.81
2019-05-01T09:28:18.659Z,77.48
2019-05-01T09:28:59.140Z,76.81
2019-05-01T09:29:39.529Z,76.9
2019-05-01T09:30:21.704Z,77
2019-05-01T09:31:01.936Z,76.81
2019-05-01T09:31:40.771Z,76.65
2019-05-01T09:32:21.212Z,76.08
2019-05-01T09:33:01.689Z,76.37
2019-05-01T09:33:42.121Z,75.98
2019-05-01T09:34:22.659Z,75.98
2019-05-01T09:35:15.018Z,76.08
2019-05-01T09:35:45.201Z,75.89
2019-05-01T09:36:24.228Z,75.51
2019-05-01T09:37:04.704Z,76.46
2019-05-01T09:37:45.118Z,76.62
2019-05-01T09:39:05.908Z,76.65
2019-05-01T09:39:47.411Z,76.37
2019-05-01T09:40:26.853Z,76.65
2019-05-01T09:41:48.813Z,76.37
2019-05-01T09:42:28.102Z,76.18
2019-05-01T09:43:08.615Z,76.18
2019-05-01T09:43:49.092Z,76.08
2019-05-01T09:44:29.633Z,75.51
2019-05-01T09:45:10.052Z,75.51
2019-05-01T09:45:50.481Z,75.41
2019-05-01T09:46:30.927Z,75.51
2019-05-01T09:47:12.108Z,75.31
2019-05-01T09:47:52.439Z,75.22
2019-05-01T09:48:32.911Z,74.84
2019-05-01T09:49:14.161Z,75.22
2019-05-01T09:49:55.895Z,75.12
2019-05-01T09:50:34.839Z,75.22
2019-05-01T09:51:15.025Z,75.41
2019-05-01T09:51:55.425Z,75.22
2019-05-01T09:52:35.860Z,75.51
2019-05-01T09:53:16.224Z,75.22
2019-05-01T09:53:56.645Z,75.12
2019-05-01T09:54:37.109Z,75.02
2019-05-01T09:55:22.522Z,75.12
2019-05-01T09:55:58.445Z,75.12
2019-05-01T09:56:38.760Z,75.12
2019-05-01T09:57:19.182Z,75.31
2019-05-01T09:57:59.566Z,75.7
2019-05-01T09:58:39.954Z,75.02
2019-05-01T09:59:20.405Z,74.68
2019-05-01T10:00:00.970Z,74.58
2019-05-01T10:00:41.435Z,74.01
2019-05-01T10:01:24.036Z,73.54
2019-05-01T10:02:02.915Z,73.72
2019-05-01T10:02:43.924Z,73.82
2019-05-01T10:03:22.989Z,73.63
2019-05-01T10:04:05.574Z,73.05
2019-05-01T10:04:43.928Z,73.15
2019-05-01T10:05:28.797Z,72.96
2019-05-01T10:06:04.766Z,72.8
2019-05-01T10:06:47.587Z,72.32
2019-05-01T10:07:28.815Z,72.32
2019-05-01T10:08:06.073Z,72.23
2019-05-01T10:09:26.992Z,72.42
2019-05-01T10:10:07.294Z,72.13
2019-05-01T10:10:47.605Z,72.23
2019-05-01T10:11:28.015Z,72.42
2019-05-01T10:12:11.451Z,72.99
2019-05-01T10:12:48.817Z,72.77
2019-05-01T10:13:29.204Z,72.8
2019-05-01T10:14:09.623Z,72.71
2019-05-01T10:14:50.010Z,72.23
2019-05-01T10:15:30.422Z,72.32
2019-05-01T10:16:10.830Z,72.52
2019-05-01T10:16:51.229Z,72.13
2019-05-01T10:17:31.614Z,72.23
2019-05-01T10:18:12.067Z,72.23
2019-05-01T10:18:52.416Z,72.13
2019-05-01T10:19:32.924Z,72.23
2019-05-01T10:20:13.243Z,72.23
2019-05-01T10:20:53.633Z,72.13
2019-05-01T10:21:34.026Z,71.84
2019-05-01T10:22:14.431Z,70.7
2019-05-01T10:22:54.869Z,70.89
2019-05-01T10:24:15.668Z,70.79
2019-05-01T10:24:56.058Z,70.6
2019-05-01T10:25:36.444Z,70.79
2019-05-01T10:27:00.062Z,70.79
2019-05-01T10:27:37.612Z,70.89
2019-05-01T10:28:17.989Z,71.84
2019-05-01T10:28:58.377Z,70.79
2019-05-01T10:29:38.773Z,70.79
2019-05-01T11:07:27.419Z,69.83